createdAt,value
2019-01-05T00:00:33.760Z,4.50
2019-01-05T00:03:12.645Z,4.50
2019-01-05T00:05:45.404Z,4.60
2019-01-05T00:08:18.189Z,4.60
2019-01-05T00:11:04.253Z,4.60
2019-01-05T00:13:50.692Z,4.60
2019-01-05T00:16:26.447Z,4.60
2019-01-05T00:18:56.571Z,4.60
2019-01-05T00:21:33.594Z,4.60
2019-01-05T00:24:19.805Z,4.70
2019-01-05T00:27:06.023Z,4.60
2019-01-05T00:29:36.275Z,4.70
2019-01-05T00:32:36.950Z,4.70
2019-01-05T00:35:21.657Z,4.70
2019-01-05T00:37:56.415Z,4.70
2019-01-05T00:40:33.307Z,4.70
2019-01-05T00:43:04.053Z,4.70
2019-01-05T00:45:34.640Z,4.80
2019-01-05T00:48:14.566Z,4.70
2019-01-05T00:50:50.134Z,4.70
2019-01-05T00:53:21.048Z,4.80
2019-01-05T00:56:07.840Z,4.80
2019-01-05T00:58:38.092Z,4.80
2019-01-05T01:01:24.065Z,4.90
2019-01-05T01:04:12.306Z,4.80
2019-01-05T01:06:44.891Z,4.80
2019-01-05T01:09:29.576Z,4.90
2019-01-05T01:11:59.725Z,4.90
2019-01-05T01:14:32.964Z,4.90
2019-01-05T01:17:19.278Z,4.90
2019-01-05T01:19:49.538Z,4.90
2019-01-05T01:22:35.999Z,5.00
2019-01-05T01:25:09.957Z,4.90
2019-01-05T01:27:43.064Z,4.90
2019-01-05T01:30:13.298Z,4.90
2019-01-05T01:33:01.615Z,5.00
2019-01-05T01:35:34.753Z,5.00
2019-01-05T01:38:38.956Z,5.00
2019-01-05T01:41:27.812Z,5.10
2019-01-05T01:44:14.378Z,5.10
2019-01-05T01:46:47.404Z,5.10
2019-01-05T01:49:19.586Z,5.10
2019-01-05T01:51:51.166Z,5.10
2019-01-05T01:54:24.578Z,5.10
2019-01-05T01:57:00.627Z,5.10
2019-01-05T01:59:33.770Z,5.10
2019-01-05T02:02:10.585Z,5.10
2019-01-05T02:04:43.742Z,5.10
2019-01-05T02:07:17.323Z,5.10
2019-01-05T02:09:55.151Z,5.10
2019-01-05T02:12:43.416Z,5.10
2019-01-05T02:15:31.216Z,5.10
2019-01-05T02:18:12.943Z,5.10
2019-01-05T02:20:57.565Z,5.10
2019-01-05T02:23:51.477Z,5.10
2019-01-05T02:27:07.483Z,5.10
2019-01-05T02:29:46.289Z,5.10
2019-01-05T02:32:46.104Z,5.10
2019-01-05T02:35:46.151Z,5.10
2019-01-05T02:38:31.094Z,5.10
2019-01-05T02:41:29.416Z,5.10
2019-01-05T02:44:34.002Z,5.10
2019-01-05T02:47:34.037Z,5.10
2019-01-05T02:50:13.248Z,5.10
2019-01-05T02:53:04.226Z,5.00
2019-01-05T02:55:46.413Z,5.10
2019-01-05T02:58:54.746Z,5.10
2019-01-05T03:01:47.101Z,5.10
2019-01-05T03:05:01.767Z,5.20
2019-01-05T03:07:46.800Z,5.10
2019-01-05T03:10:34.574Z,5.10
2019-01-05T03:13:22.274Z,5.10
2019-01-05T03:16:16.869Z,5.10
2019-01-05T03:19:08.095Z,5.10
2019-01-05T03:22:28.267Z,5.20
2019-01-05T03:25:32.618Z,5.20
2019-01-05T03:28:14.560Z,5.20
2019-01-05T03:31:03.685Z,5.30
2019-01-05T03:33:57.420Z,5.30
2019-01-05T03:36:55.341Z,5.30
2019-01-05T03:39:55.021Z,5.20
2019-01-05T03:42:39.689Z,5.20
2019-01-05T03:45:41.289Z,5.30
2019-01-05T03:48:38.172Z,5.30
2019-01-05T03:51:38.419Z,5.30
2019-01-05T03:54:26.599Z,5.30
2019-01-05T03:57:11.082Z,5.30
2019-01-05T04:00:24.267Z,5.30
2019-01-05T04:03:09.201Z,5.30
2019-01-05T04:06:16.158Z,5.30
2019-01-05T04:09:04.160Z,5.30
2019-01-05T04:12:22.123Z,5.30
2019-01-05T04:15:14.702Z,5.30
2019-01-05T04:17:50.457Z,5.40
2019-01-05T04:20:58.098Z,5.40
2019-01-05T04:23:56.373Z,5.40
2019-01-05T04:27:06.754Z,5.40
2019-01-05T04:29:54.774Z,5.50
2019-01-05T04:33:01.965Z,5.60
2019-01-05T04:35:48.935Z,5.50
2019-01-05T04:38:54.714Z,5.50
2019-01-05T04:41:45.356Z,5.60
2019-01-05T04:44:46.926Z,5.60
2019-01-05T04:47:34.457Z,5.60
2019-01-05T04:50:31.332Z,5.60
2019-01-05T04:53:32.693Z,5.60
2019-01-05T04:56:46.173Z,5.60
2019-01-05T05:00:07.077Z,5.80
2019-01-05T05:03:12.553Z,5.70
2019-01-05T05:05:56.705Z,5.60
2019-01-05T05:09:05.430Z,5.70
2019-01-05T05:12:03.736Z,5.60
2019-01-05T05:14:54.533Z,5.70
2019-01-05T05:17:36.403Z,5.70
2019-01-05T05:20:48.514Z,5.80
2019-01-05T05:23:45.493Z,5.80
2019-01-05T05:27:08.092Z,5.80
2019-01-05T05:30:18.140Z,5.80
2019-01-05T05:33:10.602Z,5.80
2019-01-05T05:36:09.128Z,5.80
2019-01-05T05:39:11.379Z,5.80
2019-01-05T05:42:18.842Z,5.90
2019-01-05T05:45:18.687Z,5.90
2019-01-05T05:48:06.406Z,5.90
2019-01-05T05:50:48.269Z,5.90
2019-01-05T05:53:55.812Z,5.90
2019-01-05T05:56:40.497Z,5.90
2019-01-05T05:59:45.957Z,6.00
2019-01-05T06:02:36.587Z,5.90
2019-01-05T06:05:33.425Z,6.00
2019-01-05T06:08:42.191Z,6.00
2019-01-05T06:11:23.802Z,6.00
2019-01-05T06:14:20.580Z,6.00
2019-01-05T06:17:09.818Z,6.10
2019-01-05T06:20:12.567Z,6.10
2019-01-05T06:23:15.385Z,6.10
2019-01-05T06:26:28.667Z,6.10
2019-01-05T06:29:20.899Z,6.10
2019-01-05T06:32:39.043Z,6.20
2019-01-05T06:35:21.009Z,6.20
2019-01-05T06:38:26.732Z,6.20
2019-01-05T06:41:45.777Z,6.30
2019-01-05T06:44:53.072Z,6.30
2019-01-05T06:47:43.712Z,6.30
2019-01-05T06:50:46.059Z,6.30
2019-01-05T06:53:40.467Z,6.30
2019-01-05T06:56:36.073Z,6.40
2019-01-05T06:59:26.685Z,6.50
2019-01-05T07:02:32.597Z,6.40
2019-01-05T07:05:39.937Z,6.40
2019-01-05T07:08:29.404Z,6.40
2019-01-05T07:11:23.592Z,6.50
2019-01-05T07:14:14.441Z,6.50
2019-01-05T07:17:29.567Z,6.50
2019-01-05T07:20:26.223Z,6.50
2019-01-05T07:23:17.223Z,6.50
2019-01-05T07:26:29.293Z,6.60
2019-01-05T07:29:35.567Z,6.60
2019-01-05T07:32:17.237Z,6.50
2019-01-05T07:34:59.111Z,6.60
2019-01-05T07:37:48.392Z,6.60
2019-01-05T07:40:56.951Z,6.60
2019-01-05T07:43:50.748Z,6.60
2019-01-05T07:46:49.311Z,6.70
2019-01-05T07:50:00.965Z,6.70
2019-01-05T07:53:11.619Z,6.70
2019-01-05T07:56:20.367Z,6.70
2019-01-05T07:59:19.003Z,6.70
2019-01-05T08:02:08.151Z,6.80
2019-01-05T08:05:22.749Z,6.70
2019-01-05T08:08:32.969Z,6.70
2019-01-05T08:11:25.198Z,6.70
2019-01-05T08:14:20.357Z,6.70
2019-01-05T08:17:14.339Z,6.80
2019-01-05T08:19:59.414Z,6.90
2019-01-05T08:23:17.617Z,6.90
2019-01-05T08:26:21.753Z,6.90
2019-01-05T08:29:16.581Z,6.90
2019-01-05T08:32:25.417Z,6.90
2019-01-05T08:35:19.129Z,7.00
2019-01-05T08:38:24.528Z,6.90
2019-01-05T08:41:28.861Z,6.90
2019-01-05T08:44:27.128Z,7.00
2019-01-05T08:47:31.670Z,6.90
2019-01-05T08:50:46.347Z,7.00
2019-01-05T08:53:30.968Z,7.00
2019-01-05T08:56:21.688Z,6.90
2019-01-05T08:59:23.034Z,6.90
2019-01-05T09:02:28.800Z,6.90
2019-01-05T09:05:23.878Z,7.00
2019-01-05T09:08:21.219Z,7.00
2019-01-05T09:11:14.882Z,7.00
2019-01-05T09:14:14.863Z,7.00
2019-01-05T09:17:08.732Z,7.10
2019-01-05T09:20:02.835Z,7.20
2019-01-05T09:23:18.468Z,7.20
2019-01-05T09:26:35.190Z,7.20
2019-01-05T09:29:48.894Z,7.20
2019-01-05T09:32:56.231Z,7.20
2019-01-05T09:35:45.780Z,7.20
2019-01-05T09:38:55.560Z,7.20
2019-01-05T09:41:59.826Z,7.30
2019-01-05T09:45:15.676Z,7.20
2019-01-05T09:48:12.491Z,7.30
2019-01-05T09:50:48.580Z,7.20
2019-01-05T09:53:30.344Z,7.20
2019-01-05T09:56:12.415Z,7.20
2019-01-05T09:59:09.320Z,7.20
2019-01-05T10:01:48.248Z,7.20
2019-01-05T10:04:35.732Z,7.20
2019-01-05T10:07:31.252Z,7.30
2019-01-05T10:10:29.516Z,7.20
2019-01-05T10:13:22.056Z,7.20
2019-01-05T10:16:35.336Z,7.30
2019-01-05T10:19:29.070Z,7.30
2019-01-05T10:22:19.955Z,7.40
2019-01-05T10:25:30.327Z,7.40
2019-01-05T10:28:39.160Z,7.40
2019-01-05T10:32:03.224Z,7.40
2019-01-05T10:35:01.468Z,7.50
2019-01-05T10:37:58.516Z,7.40
2019-01-05T10:40:40.469Z,7.40
2019-01-05T10:43:49.050Z,7.40
2019-01-05T10:46:51.749Z,7.50
2019-01-05T10:49:44.112Z,7.50
2019-01-05T10:52:39.725Z,7.50
2019-01-05T10:55:43.751Z,7.40
2019-01-05T10:58:55.318Z,7.40
2019-01-05T11:02:00.938Z,7.40
2019-01-05T11:04:45.476Z,7.50
2019-01-05T11:07:36.357Z,7.50
2019-01-05T11:10:41.844Z,7.50
2019-01-05T11:13:37.545Z,7.40
2019-01-05T11:16:30.518Z,7.50
2019-01-05T11:19:15.160Z,7.50
2019-01-05T11:21:52.152Z,7.50
2019-01-05T11:25:12.432Z,7.50
2019-01-05T11:28:23.742Z,7.40
2019-01-05T11:31:21.774Z,7.40
2019-01-05T11:34:03.945Z,7.50
2019-01-05T11:36:59.129Z,7.50
2019-01-05T11:40:17.829Z,7.50
2019-01-05T11:43:17.176Z,7.40
2019-01-05T11:46:13.737Z,7.50
2019-01-05T11:49:07.363Z,7.40
2019-01-05T11:52:08.315Z,7.40
2019-01-05T11:55:15.710Z,7.50
2019-01-05T11:58:12.572Z,7.60
2019-01-05T12:01:19.894Z,7.60
2019-01-05T12:04:04.991Z,7.70
2019-01-05T12:07:22.644Z,7.60
2019-01-05T12:10:25.725Z,7.50
2019-01-05T12:13:33.158Z,7.50
2019-01-05T12:16:40.653Z,7.60
2019-01-05T12:19:31.877Z,7.60
2019-01-05T12:22:36.448Z,7.60
2019-01-05T12:25:43.797Z,7.50
2019-01-05T12:28:50.059Z,7.50
2019-01-05T12:31:45.325Z,7.50
2019-01-05T12:34:38.981Z,7.50
2019-01-05T12:37:31.089Z,7.50
2019-01-05T12:40:42.408Z,7.60
2019-01-05T12:43:33.103Z,7.50
2019-01-05T12:46:26.695Z,7.60
2019-01-05T12:49:16.379Z,7.50
2019-01-05T12:52:03.967Z,7.40
2019-01-05T12:54:45.919Z,7.40
2019-01-05T12:57:59.549Z,7.30
2019-01-05T13:01:03.677Z,7.30
2019-01-05T13:04:15.567Z,7.30
2019-01-05T13:07:25.567Z,7.40
2019-01-05T13:10:25.639Z,7.40
2019-01-05T13:13:30.081Z,7.40
2019-01-05T13:16:54.512Z,7.40
2019-01-05T13:20:08.184Z,7.40
2019-01-05T13:23:03.484Z,7.30
2019-01-05T13:26:04.960Z,7.30
2019-01-05T13:28:46.920Z,7.30
2019-01-05T13:31:37.233Z,7.40
2019-01-05T13:34:47.229Z,7.30
2019-01-05T13:37:28.815Z,7.30
2019-01-05T13:40:35.907Z,7.30
2019-01-05T13:43:17.655Z,7.30
2019-01-05T13:46:02.560Z,7.30
2019-01-05T13:49:08.603Z,7.30
2019-01-05T13:51:47.606Z,7.30
2019-01-05T13:54:33.569Z,7.30
2019-01-05T13:57:12.636Z,7.30
2019-01-05T13:59:48.695Z,7.30
2019-01-05T14:02:27.814Z,7.30
2019-01-05T14:05:03.650Z,7.30
2019-01-05T14:07:50.058Z,7.20
2019-01-05T14:10:20.133Z,7.30
2019-01-05T14:12:53.290Z,7.20
2019-01-05T14:15:26.754Z,7.20
2019-01-05T14:18:14.475Z,7.20
2019-01-05T14:20:53.303Z,7.30
2019-01-05T14:23:29.982Z,7.30
2019-01-05T14:26:20.426Z,7.20
2019-01-05T14:29:02.311Z,7.20
2019-01-05T14:31:35.066Z,7.20
2019-01-05T14:34:21.498Z,7.20
2019-01-05T14:36:51.593Z,7.20
2019-01-05T14:39:37.406Z,7.20
2019-01-05T14:42:07.491Z,7.20
2019-01-05T14:44:41.070Z,7.20
2019-01-05T14:47:27.173Z,7.10
2019-01-05T14:50:13.629Z,7.10
2019-01-05T14:52:58.514Z,7.10
2019-01-05T14:55:40.192Z,7.10
2019-01-05T14:58:13.296Z,7.20
2019-01-05T15:00:55.798Z,7.10
2019-01-05T15:03:41.699Z,7.10
2019-01-05T15:06:11.792Z,7.00
2019-01-05T15:08:57.001Z,7.00
2019-01-05T15:11:43.469Z,7.10
2019-01-05T15:14:13.690Z,7.10
2019-01-05T15:17:01.960Z,7.10
2019-01-05T15:19:48.428Z,7.10
2019-01-05T15:22:21.268Z,7.00
2019-01-05T15:25:03.250Z,7.00
2019-01-05T15:27:33.367Z,7.00
2019-01-05T15:30:03.433Z,7.00
2019-01-05T15:32:33.539Z,7.00
2019-01-05T15:35:12.423Z,7.00
2019-01-05T15:37:54.415Z,7.30
2019-01-05T15:40:39.984Z,7.30
2019-01-05T15:43:12.937Z,7.70
2019-01-05T15:45:59.273Z,7.30
2019-01-05T15:48:35.561Z,7.10
2019-01-05T15:51:17.857Z,7.00
2019-01-05T15:53:50.963Z,7.00
2019-01-05T15:56:30.565Z,7.00
2019-01-05T15:59:03.645Z,7.00
2019-01-05T16:01:33.835Z,6.90
2019-01-05T16:04:04.057Z,6.90
2019-01-05T16:06:46.349Z,6.90
2019-01-05T16:09:33.459Z,6.90
2019-01-05T16:12:15.959Z,7.00
2019-01-05T16:14:59.323Z,6.90
2019-01-05T16:17:29.799Z,6.80
2019-01-05T16:19:59.875Z,6.80
2019-01-05T16:22:33.416Z,6.80
2019-01-05T16:25:06.705Z,6.80
2019-01-05T16:27:52.809Z,6.80
2019-01-05T16:30:37.917Z,6.80
2019-01-05T16:33:23.963Z,6.80
2019-01-05T16:35:55.091Z,6.80
2019-01-05T16:38:27.748Z,6.80
2019-01-05T16:41:06.896Z,6.80
2019-01-05T16:43:51.843Z,6.80
2019-01-05T16:46:39.952Z,6.80
2019-01-05T16:49:13.007Z,6.80
2019-01-05T16:51:43.097Z,6.80
2019-01-05T16:54:29.189Z,6.80
2019-01-05T16:57:02.006Z,6.80
2019-01-05T16:59:37.822Z,6.80
2019-01-05T17:02:24.939Z,6.80
2019-01-05T17:05:11.050Z,6.70
2019-01-05T17:07:56.853Z,6.80
2019-01-05T17:10:32.993Z,6.80
2019-01-05T17:13:05.881Z,6.80
2019-01-05T17:15:38.429Z,6.80
2019-01-05T17:18:20.626Z,6.70
2019-01-05T17:20:56.439Z,6.80
2019-01-05T17:23:44.991Z,6.70
2019-01-05T17:26:31.380Z,6.70
2019-01-05T17:29:01.496Z,6.70
2019-01-05T17:31:37.790Z,6.70
2019-01-05T17:34:19.881Z,6.70
2019-01-05T17:37:05.775Z,6.70
2019-01-05T17:39:53.767Z,6.70
2019-01-05T17:42:35.704Z,6.70
2019-01-05T17:45:06.129Z,6.70
2019-01-05T17:47:48.052Z,6.70
2019-01-05T17:50:34.037Z,6.70
2019-01-05T17:53:09.799Z,6.70
2019-01-05T17:55:42.355Z,6.60
2019-01-05T17:58:21.147Z,6.60
2019-01-05T18:00:51.259Z,6.70
2019-01-05T18:03:37.139Z,6.70
2019-01-05T18:06:23.214Z,6.70
2019-01-05T18:08:59.048Z,6.70
2019-01-05T18:11:29.136Z,6.60
2019-01-05T18:14:15.035Z,6.70
2019-01-05T18:16:50.559Z,6.60
2019-01-05T18:19:38.496Z,6.60
2019-01-05T18:22:17.479Z,6.60
2019-01-05T18:24:53.148Z,6.60
2019-01-05T18:27:39.441Z,6.60
2019-01-05T18:30:26.276Z,6.60
2019-01-05T18:32:59.671Z,6.60
2019-01-05T18:35:35.769Z,6.70
2019-01-05T18:38:09.058Z,6.60
2019-01-05T18:40:51.209Z,6.60
2019-01-05T18:43:21.300Z,6.70
2019-01-05T18:45:54.340Z,6.60
2019-01-05T18:48:30.223Z,6.60
2019-01-05T18:51:02.784Z,6.70
2019-01-05T18:53:38.640Z,6.70
2019-01-05T18:56:08.739Z,6.60
2019-01-05T18:58:41.526Z,6.60
2019-01-05T19:01:27.692Z,6.60
2019-01-05T19:04:06.450Z,6.60
2019-01-05T19:06:42.473Z,6.60
2019-01-05T19:09:30.458Z,6.60
2019-01-05T19:12:16.872Z,6.60
2019-01-05T19:14:55.998Z,6.50
2019-01-05T19:17:42.131Z,6.60
2019-01-05T19:20:12.336Z,6.70
2019-01-05T19:22:42.764Z,6.80
2019-01-05T19:25:12.830Z,6.90
2019-01-05T19:27:51.747Z,6.90
2019-01-05T19:30:21.925Z,7.00
2019-01-05T19:32:54.791Z,7.00
2019-01-05T19:35:30.665Z,7.00
2019-01-05T19:38:06.463Z,7.30
2019-01-05T19:40:36.596Z,7.00
2019-01-05T19:43:22.516Z,6.90
2019-01-05T19:46:08.746Z,7.00
2019-01-05T19:48:41.273Z,7.00
2019-01-05T19:51:14.281Z,6.90
2019-01-05T19:53:46.792Z,6.90
2019-01-05T19:56:25.757Z,7.20
2019-01-05T19:58:58.517Z,7.00
2019-01-05T20:01:44.633Z,6.80
2019-01-05T20:04:17.435Z,6.70
2019-01-05T20:07:03.510Z,6.60
2019-01-05T20:09:49.448Z,6.50
2019-01-05T20:12:22.193Z,6.50
2019-01-05T20:15:01.260Z,6.50
2019-01-05T20:17:47.341Z,6.50
2019-01-05T20:20:36.608Z,6.50
2019-01-05T20:23:16.114Z,6.50
2019-01-05T20:25:48.604Z,6.50
2019-01-05T20:28:33.381Z,6.50
2019-01-05T20:31:05.919Z,6.50
2019-01-05T20:33:47.995Z,6.50
2019-01-05T20:36:34.048Z,6.50
2019-01-05T20:39:09.923Z,6.50
2019-01-05T20:41:42.992Z,6.50
2019-01-05T20:44:29.238Z,6.40
2019-01-05T20:47:17.227Z,6.40
2019-01-05T20:50:03.101Z,6.40
2019-01-05T20:52:33.242Z,6.40
2019-01-05T20:55:03.297Z,6.40
2019-01-05T20:57:33.365Z,6.40
2019-01-05T21:00:09.499Z,6.40
2019-01-05T21:02:39.581Z,6.40
2019-01-05T21:05:18.645Z,6.40
2019-01-05T21:08:03.505Z,6.40
2019-01-05T21:10:39.337Z,6.40
2019-01-05T21:13:25.232Z,6.40
2019-01-05T21:16:03.801Z,6.40
2019-01-05T21:18:51.756Z,6.40
2019-01-05T21:21:24.519Z,6.40
2019-01-05T21:24:00.579Z,6.40
2019-01-05T21:26:46.753Z,6.40
2019-01-05T21:29:19.616Z,6.40
2019-01-05T21:31:52.429Z,6.40
2019-01-05T21:34:38.517Z,6.40
2019-01-05T21:37:08.603Z,6.40
2019-01-05T21:39:38.879Z,6.40
2019-01-05T21:42:23.542Z,6.40
2019-01-05T21:45:02.588Z,6.40
2019-01-05T21:47:41.423Z,6.40
2019-01-05T21:50:14.451Z,6.40
2019-01-05T21:52:47.303Z,6.40
2019-01-05T21:55:20.022Z,6.40
2019-01-05T21:58:08.164Z,6.40
2019-01-05T22:00:44.204Z,6.40
2019-01-05T22:03:30.348Z,6.40
2019-01-05T22:06:00.442Z,6.30
2019-01-05T22:08:33.483Z,6.30
2019-01-05T22:11:06.025Z,6.30
2019-01-05T22:13:52.165Z,6.30
2019-01-05T22:16:38.247Z,6.40
2019-01-05T22:19:11.016Z,6.40
2019-01-05T22:21:57.377Z,6.40
2019-01-05T22:24:29.943Z,6.40
2019-01-05T22:27:15.778Z,6.30
2019-01-05T22:29:45.858Z,6.30
2019-01-05T22:32:31.774Z,6.30
2019-01-05T22:35:13.923Z,6.30
2019-01-05T22:37:43.977Z,6.30
2019-01-05T22:40:14.077Z,6.40
2019-01-05T22:43:01.819Z,6.40
2019-01-05T22:45:47.094Z,6.30
2019-01-05T22:48:17.258Z,6.40
2019-01-05T22:50:47.411Z,6.40
2019-01-05T22:53:20.360Z,6.40
2019-01-05T22:55:56.259Z,6.40
2019-01-05T22:58:29.055Z,6.40
2019-01-05T23:00:59.175Z,6.40
2019-01-05T23:03:44.134Z,6.40
2019-01-05T23:06:14.205Z,6.40
2019-01-05T23:08:46.825Z,6.40
2019-01-05T23:11:32.934Z,6.50
2019-01-05T23:14:15.049Z,6.40
2019-01-05T23:17:01.308Z,6.40
2019-01-05T23:19:47.400Z,6.40
2019-01-05T23:22:35.217Z,6.40
2019-01-05T23:25:21.152Z,6.40
2019-01-05T23:30:51.715Z,6.40
2019-01-05T23:33:24.741Z,6.40
2019-01-05T23:36:09.611Z,6.40
2019-01-05T23:38:51.553Z,6.40
2019-01-05T23:41:24.584Z,6.40
2019-01-05T23:44:00.521Z,6.40
2019-01-05T23:46:30.733Z,6.40
2019-01-05T23:49:09.649Z,6.40
2019-01-05T23:51:39.743Z,6.40
2019-01-05T23:54:18.759Z,6.40
2019-01-05T23:57:04.860Z,6.40
2019-01-05T23:59:34.944Z,6.30
